UUOO/VOZ METAR and TAF weather

Enter ICAO airport designator
Station Type Date Time Source
UUOO METAR 2021/03/05 19:00 UTC NOAA

UUOO 051900Z 30002MPS CAVOK M05/M06 Q1013 R30/190055 NOSIG RMK QFE746


Station Type Date Time Source
UUOO Decoded METAR 2021/03/05 19:00 UTC NOAA

Voronez, Russia (UUOO) 51-39N 039-15E 104M
Mar 05, 2021 - 02:00 PM EST / 2021.03.05 1900 UTC
Wind: from the WNW (300 degrees) at 4 MPH (4 KT):0
Visibility: greater than 7 mile(s):0
Temperature: 23 F (-5 C)
Dew Point: 21 F (-6 C)
Relative Humidity: 92%
Pressure (altimeter): 29.91 in. Hg (1013 hPa)
ob: UUOO 051900Z 30002MPS CAVOK M05/M06 Q1013 R30/190055 NOSIG RMK QFE746
cycle: 19

Station Type Date Time Source
UUOO TAF 2019/08/12 03:33 UTC NOAA

TAF COR TAF COR UUOO 120159 1203/1212 31003MPS CAVOK

Example: see airport list